sensor_id;sensor_type;location;lat;lon;timestamp;pressure;altitude;pressure_sealevel;temperature;humidity
68141;BME280;54941;52.220;104.306;2024-01-06T00:01:27;96978.22;;;-20.89;77.71
68141;BME280;54941;52.220;104.306;2024-01-06T00:03:54;96981.13;;;-20.78;77.79
68141;BME280;54941;52.220;104.306;2024-01-06T00:06:21;96972.56;;;-20.80;77.55
68141;BME280;54941;52.220;104.306;2024-01-06T00:08:47;96972.88;;;-20.92;77.55
68141;BME280;54941;52.220;104.306;2024-01-06T00:11:13;96971.66;;;-20.96;77.59
68141;BME280;54941;52.220;104.306;2024-01-06T00:13:39;96969.16;;;-20.96;77.83
68141;BME280;54941;52.220;104.306;2024-01-06T00:16:06;96969.22;;;-20.87;77.55
68141;BME280;54941;52.220;104.306;2024-01-06T00:18:34;96957.25;;;-20.90;77.75
68141;BME280;54941;52.220;104.306;2024-01-06T00:21:00;96954.91;;;-20.88;77.77
68141;BME280;54941;52.220;104.306;2024-01-06T00:23:26;96957.56;;;-20.87;77.53
68141;BME280;54941;52.220;104.306;2024-01-06T00:25:53;96960.66;;;-20.89;77.54
68141;BME280;54941;52.220;104.306;2024-01-06T00:28:19;96950.31;;;-20.92;76.76
68141;BME280;54941;52.220;104.306;2024-01-06T00:30:45;96953.63;;;-21.01;77.16
68141;BME280;54941;52.220;104.306;2024-01-06T00:33:12;96941.72;;;-21.10;77.35
68141;BME280;54941;52.220;104.306;2024-01-06T00:35:40;96935.00;;;-21.03;77.27
68141;BME280;54941;52.220;104.306;2024-01-06T00:38:06;96936.22;;;-20.99;77.48
68141;BME280;54941;52.220;104.306;2024-01-06T00:40:32;96936.72;;;-20.94;77.55
68141;BME280;54941;52.220;104.306;2024-01-06T00:42:59;96951.56;;;-20.96;77.62
68141;BME280;54941;52.220;104.306;2024-01-06T00:45:25;96944.28;;;-20.86;77.43
68141;BME280;54941;52.220;104.306;2024-01-06T00:47:51;96941.88;;;-20.93;77.33
68141;BME280;54941;52.220;104.306;2024-01-06T00:50:18;96942.19;;;-20.90;77.42
68141;BME280;54941;52.220;104.306;2024-01-06T00:52:46;96928.72;;;-20.75;77.69
68141;BME280;54941;52.220;104.306;2024-01-06T00:55:12;96926.06;;;-20.76;77.42
68141;BME280;54941;52.220;104.306;2024-01-06T00:57:38;96905.47;;;-20.65;77.29
68141;BME280;54941;52.220;104.306;2024-01-06T01:00:05;96910.56;;;-20.56;77.56
68141;BME280;54941;52.220;104.306;2024-01-06T01:02:32;96899.41;;;-20.43;77.70
68141;BME280;54941;52.220;104.306;2024-01-06T01:04:58;96896.75;;;-20.44;77.65
68141;BME280;54941;52.220;104.306;2024-01-06T01:07:25;96887.03;;;-20.32;77.67
68141;BME280;54941;52.220;104.306;2024-01-06T01:09:52;96887.44;;;-20.37;77.30
68141;BME280;54941;52.220;104.306;2024-01-06T01:12:19;96884.81;;;-20.29;77.22
68141;BME280;54941;52.220;104.306;2024-01-06T01:14:45;96878.00;;;-20.30;76.63
68141;BME280;54941;52.220;104.306;2024-01-06T01:17:11;96871.78;;;-20.34;76.82
68141;BME280;54941;52.220;104.306;2024-01-06T01:19:37;96863.22;;;-20.27;76.73
68141;BME280;54941;52.220;104.306;2024-01-06T01:22:04;96867.41;;;-20.19;77.00
68141;BME280;54941;52.220;104.306;2024-01-06T01:24:30;96863.59;;;-20.16;76.80
68141;BME280;54941;52.220;104.306;2024-01-06T01:26:58;96858.19;;;-19.94;76.84
68141;BME280;54941;52.220;104.306;2024-01-06T01:29:24;96856.16;;;-19.81;76.90
68141;BME280;54941;52.220;104.306;2024-01-06T01:31:50;96850.16;;;-19.66;77.21
68141;BME280;54941;52.220;104.306;2024-01-06T01:34:17;96852.38;;;-19.52;76.79
68141;BME280;54941;52.220;104.306;2024-01-06T01:36:43;96840.84;;;-19.41;76.57
68141;BME280;54941;52.220;104.306;2024-01-06T01:39:09;96833.44;;;-19.39;76.06
68141;BME280;54941;52.220;104.306;2024-01-06T01:41:36;96817.03;;;-19.19;76.36
68141;BME280;54941;52.220;104.306;2024-01-06T01:44:04;96828.84;;;-19.00;76.14
68141;BME280;54941;52.220;104.306;2024-01-06T01:46:30;96829.00;;;-18.90;75.46
68141;BME280;54941;52.220;104.306;2024-01-06T01:48:58;96824.56;;;-18.84;74.99
68141;BME280;54941;52.220;104.306;2024-01-06T01:51:28;96811.66;;;-18.78;74.76
68141;BME280;54941;52.220;104.306;2024-01-06T01:53:55;96807.63;;;-18.68;75.05
68141;BME280;54941;52.220;104.306;2024-01-06T01:56:22;96810.72;;;-18.62;74.91
68141;BME280;54941;52.220;104.306;2024-01-06T01:58:48;96810.38;;;-18.47;74.73
68141;BME280;54941;52.220;104.306;2024-01-06T02:01:17;96804.69;;;-18.27;75.07
68141;BME280;54941;52.220;104.306;2024-01-06T02:03:44;96807.38;;;-18.07;74.35
68141;BME280;54941;52.220;104.306;2024-01-06T02:06:10;96794.19;;;-18.05;74.40
68141;BME280;54941;52.220;104.306;2024-01-06T02:08:39;96787.00;;;-17.91;74.49
68141;BME280;54941;52.220;104.306;2024-01-06T02:11:06;96779.53;;;-17.81;74.24
68141;BME280;54941;52.220;104.306;2024-01-06T02:13:36;96772.66;;;-17.74;74.36
68141;BME280;54941;52.220;104.306;2024-01-06T02:16:05;96766.56;;;-17.76;73.60
68141;BME280;54941;52.220;104.306;2024-01-06T02:18:34;96759.31;;;-17.62;73.62
68141;BME280;54941;52.220;104.306;2024-01-06T02:21:01;96757.78;;;-17.52;73.54
68141;BME280;54941;52.220;104.306;2024-01-06T02:23:30;96762.00;;;-17.42;73.56
68141;BME280;54941;52.220;104.306;2024-01-06T02:25:56;96751.72;;;-17.35;73.59
68141;BME280;54941;52.220;104.306;2024-01-06T02:28:23;96759.53;;;-17.13;73.33
68141;BME280;54941;52.220;104.306;2024-01-06T02:30:50;96758.13;;;-17.01;73.35
68141;BME280;54941;52.220;104.306;2024-01-06T02:33:19;96743.72;;;-16.63;72.92
68141;BME280;54941;52.220;104.306;2024-01-06T02:35:46;96750.13;;;-16.37;72.38
68141;BME280;54941;52.220;104.306;2024-01-06T02:38:12;96750.31;;;-16.15;71.76
68141;BME280;54941;52.220;104.306;2024-01-06T02:40:40;96740.97;;;-15.76;71.32
68141;BME280;54941;52.220;104.306;2024-01-06T02:43:06;96737.22;;;-15.08;69.53
68141;BME280;54941;52.220;104.306;2024-01-06T02:45:33;96739.03;;;-14.75;67.70
68141;BME280;54941;52.220;104.306;2024-01-06T02:47:59;96726.56;;;-14.40;66.85
68141;BME280;54941;52.220;104.306;2024-01-06T02:50:25;96723.09;;;-14.08;65.54
68141;BME280;54941;52.220;104.306;2024-01-06T02:52:51;96727.56;;;-14.16;64.97
68141;BME280;54941;52.220;104.306;2024-01-06T02:55:18;96724.75;;;-13.87;63.71
68141;BME280;54941;52.220;104.306;2024-01-06T02:57:46;96725.13;;;-13.71;64.09
68141;BME280;54941;52.220;104.306;2024-01-06T03:00:13;96719.16;;;-12.68;61.87
68141;BME280;54941;52.220;104.306;2024-01-06T03:02:40;96723.78;;;-12.85;61.46
68141;BME280;54941;52.220;104.306;2024-01-06T03:05:06;96712.50;;;-12.54;60.09
68141;BME280;54941;52.220;104.306;2024-01-06T03:07:32;96702.34;;;-12.17;59.19
68141;BME280;54941;52.220;104.306;2024-01-06T03:09:59;96706.94;;;-12.25;57.99
68141;BME280;54941;52.220;104.306;2024-01-06T03:12:25;96701.81;;;-11.25;56.96
68141;BME280;54941;52.220;104.306;2024-01-06T03:14:53;96697.47;;;-11.26;56.55
68141;BME280;54941;52.220;104.306;2024-01-06T03:17:19;96696.53;;;-11.02;55.77
68141;BME280;54941;52.220;104.306;2024-01-06T03:19:45;96684.28;;;-10.68;53.79
68141;BME280;54941;52.220;104.306;2024-01-06T03:22:12;96681.22;;;-11.02;53.66
68141;BME280;54941;52.220;104.306;2024-01-06T03:24:39;96678.31;;;-10.81;54.29
68141;BME280;54941;52.220;104.306;2024-01-06T03:27:06;96670.06;;;-10.91;53.52
68141;BME280;54941;52.220;104.306;2024-01-06T03:29:32;96655.75;;;-10.75;53.29
68141;BME280;54941;52.220;104.306;2024-01-06T03:32:00;96672.16;;;-11.36;54.83
68141;BME280;54941;52.220;104.306;2024-01-06T03:34:26;96663.16;;;-11.31;54.26
68141;BME280;54941;52.220;104.306;2024-01-06T03:36:52;96677.13;;;-11.89;56.34
68141;BME280;54941;52.220;104.306;2024-01-06T03:39:19;96678.66;;;-11.80;56.18
68141;BME280;54941;52.220;104.306;2024-01-06T03:41:45;96675.41;;;-11.39;55.15
68141;BME280;54941;52.220;104.306;2024-01-06T03:44:11;96687.50;;;-11.61;56.29
68141;BME280;54941;52.220;104.306;2024-01-06T03:46:38;96678.81;;;-11.38;55.57
68141;BME280;54941;52.220;104.306;2024-01-06T03:49:05;96679.16;;;-11.34;54.89
68141;BME280;54941;52.220;104.306;2024-01-06T03:51:32;96670.84;;;-10.65;54.60
68141;BME280;54941;52.220;104.306;2024-01-06T03:53:58;96663.97;;;-10.66;53.56
68141;BME280;54941;52.220;104.306;2024-01-06T03:56:29;96655.94;;;-10.85;54.03
68141;BME280;54941;52.220;104.306;2024-01-06T03:58:55;96656.91;;;-10.57;53.59
68141;BME280;54941;52.220;104.306;2024-01-06T04:01:22;96644.97;;;-11.49;55.22
68141;BME280;54941;52.220;104.306;2024-01-06T04:03:48;96638.28;;;-10.96;54.40
68141;BME280;54941;52.220;104.306;2024-01-06T04:06:16;96635.91;;;-10.93;54.01
68141;BME280;54941;52.220;104.306;2024-01-06T04:08:42;96639.44;;;-11.17;54.82
68141;BME280;54941;52.220;104.306;2024-01-06T04:11:08;96634.72;;;-10.58;55.34
68141;BME280;54941;52.220;104.306;2024-01-06T04:13:35;96635.78;;;-10.54;53.67
68141;BME280;54941;52.220;104.306;2024-01-06T04:16:01;96636.88;;;-10.91;54.25
68141;BME280;54941;52.220;104.306;2024-01-06T04:18:27;96647.34;;;-11.39;56.08
68141;BME280;54941;52.220;104.306;2024-01-06T04:20:54;96653.84;;;-11.31;55.64
68141;BME280;54941;52.220;104.306;2024-01-06T04:23:21;96656.50;;;-11.81;56.33
68141;BME280;54941;52.220;104.306;2024-01-06T04:25:48;96641.38;;;-11.39;56.61
68141;BME280;54941;52.220;104.306;2024-01-06T04:28:14;96605.66;;;-11.53;55.75
68141;BME280;54941;52.220;104.306;2024-01-06T04:30:40;96627.69;;;-12.04;56.91
68141;BME280;54941;52.220;104.306;2024-01-06T04:33:06;96617.34;;;-11.94;57.21
68141;BME280;54941;52.220;104.306;2024-01-06T04:35:33;96626.13;;;-11.64;56.84
68141;BME280;54941;52.220;104.306;2024-01-06T04:37:59;96614.69;;;-11.96;57.77
68141;BME280;54941;52.220;104.306;2024-01-06T04:40:27;96596.97;;;-11.94;57.99
68141;BME280;54941;52.220;104.306;2024-01-06T04:42:53;96588.53;;;-11.93;58.13
68141;BME280;54941;52.220;104.306;2024-01-06T04:45:19;96574.75;;;-11.70;57.69
68141;BME280;54941;52.220;104.306;2024-01-06T04:47:45;96565.78;;;-11.39;56.86
68141;BME280;54941;52.220;104.306;2024-01-06T04:50:12;96566.28;;;-11.44;56.99
68141;BME280;54941;52.220;104.306;2024-01-06T04:52:38;96561.19;;;-11.44;56.81
68141;BME280;54941;52.220;104.306;2024-01-06T04:55:05;96549.31;;;-11.31;56.24
68141;BME280;54941;52.220;104.306;2024-01-06T04:57:33;96552.03;;;-11.14;55.74
68141;BME280;54941;52.220;104.306;2024-01-06T04:59:59;96573.31;;;-11.01;56.22
68141;BME280;54941;52.220;104.306;2024-01-06T05:02:26;96549.00;;;-11.35;56.23
68141;BME280;54941;52.220;104.306;2024-01-06T05:04:52;96555.75;;;-11.36;56.79
68141;BME280;54941;52.220;104.306;2024-01-06T05:07:18;96557.88;;;-10.89;55.74
68141;BME280;54941;52.220;104.306;2024-01-06T05:09:44;96534.94;;;-10.48;54.94
68141;BME280;54941;52.220;104.306;2024-01-06T05:12:11;96539.16;;;-10.48;54.51
68141;BME280;54941;52.220;104.306;2024-01-06T05:14:39;96505.94;;;-11.04;55.39
68141;BME280;54941;52.220;104.306;2024-01-06T05:17:05;96524.06;;;-11.13;56.75
68141;BME280;54941;52.220;104.306;2024-01-06T05:19:32;96515.97;;;-11.34;56.57
68141;BME280;54941;52.220;104.306;2024-01-06T05:21:58;96515.00;;;-11.23;57.29
68141;BME280;54941;52.220;104.306;2024-01-06T05:24:25;96505.75;;;-11.07;57.26
68141;BME280;54941;52.220;104.306;2024-01-06T05:26:51;96495.63;;;-11.06;56.65
68141;BME280;54941;52.220;104.306;2024-01-06T05:29:18;96495.69;;;-11.32;56.73
68141;BME280;54941;52.220;104.306;2024-01-06T05:31:45;96502.22;;;-11.09;57.03
68141;BME280;54941;52.220;104.306;2024-01-06T05:34:12;96506.75;;;-11.19;56.92
68141;BME280;54941;52.220;104.306;2024-01-06T05:36:38;96510.28;;;-11.30;57.27
68141;BME280;54941;52.220;104.306;2024-01-06T05:39:07;96508.97;;;-11.23;57.22
68141;BME280;54941;52.220;104.306;2024-01-06T05:41:37;96499.19;;;-11.30;57.28
68141;BME280;54941;52.220;104.306;2024-01-06T05:44:04;96480.84;;;-11.25;56.98
68141;BME280;54941;52.220;104.306;2024-01-06T05:46:30;96489.38;;;-11.24;56.95
68141;BME280;54941;52.220;104.306;2024-01-06T05:48:58;96470.84;;;-11.22;57.13
68141;BME280;54941;52.220;104.306;2024-01-06T05:51:25;96460.09;;;-11.44;57.10
68141;BME280;54941;52.220;104.306;2024-01-06T05:53:51;96458.53;;;-11.42;57.12
68141;BME280;54941;52.220;104.306;2024-01-06T05:56:23;96443.41;;;-11.39;57.34
68141;BME280;54941;52.220;104.306;2024-01-06T05:58:50;96433.56;;;-11.20;57.11
68141;BME280;54941;52.220;104.306;2024-01-06T06:01:16;96428.16;;;-11.24;56.88
68141;BME280;54941;52.220;104.306;2024-01-06T06:03:42;96429.66;;;-11.28;57.09
68141;BME280;54941;52.220;104.306;2024-01-06T06:06:10;96438.25;;;-11.12;56.61
68141;BME280;54941;52.220;104.306;2024-01-06T06:08:37;96464.75;;;-11.24;55.57
68141;BME280;54941;52.220;104.306;2024-01-06T06:11:03;96441.81;;;-11.24;53.68
68141;BME280;54941;52.220;104.306;2024-01-06T06:13:29;96437.81;;;-11.47;53.59
68141;BME280;54941;52.220;104.306;2024-01-06T06:15:56;96443.72;;;-11.34;54.03
68141;BME280;54941;52.220;104.306;2024-01-06T06:18:22;96434.22;;;-11.50;53.54
68141;BME280;54941;52.220;104.306;2024-01-06T06:20:48;96427.75;;;-11.45;53.52
68141;BME280;54941;52.220;104.306;2024-01-06T06:23:16;96425.97;;;-11.59;53.51
68141;BME280;54941;52.220;104.306;2024-01-06T06:25:43;96433.31;;;-11.51;53.69
68141;BME280;54941;52.220;104.306;2024-01-06T06:28:09;96418.56;;;-11.56;53.48
68141;BME280;54941;52.220;104.306;2024-01-06T06:30:35;96418.72;;;-11.53;53.71
68141;BME280;54941;52.220;104.306;2024-01-06T06:33:02;96409.72;;;-11.61;52.98
68141;BME280;54941;52.220;104.306;2024-01-06T06:35:28;96428.53;;;-11.59;53.07
68141;BME280;54941;52.220;104.306;2024-01-06T06:37:54;96414.50;;;-11.53;52.95
68141;BME280;54941;52.220;104.306;2024-01-06T06:40:22;96420.88;;;-11.59;52.85
68141;BME280;54941;52.220;104.306;2024-01-06T06:42:48;96412.84;;;-11.52;52.03
68141;BME280;54941;52.220;104.306;2024-01-06T06:45:15;96411.78;;;-11.56;51.82
68141;BME280;54941;52.220;104.306;2024-01-06T06:47:41;96397.56;;;-11.52;52.02
68141;BME280;54941;52.220;104.306;2024-01-06T06:50:08;96400.28;;;-11.49;51.78
68141;BME280;54941;52.220;104.306;2024-01-06T06:52:34;96408.22;;;-11.31;51.79
68141;BME280;54941;52.220;104.306;2024-01-06T06:55:00;96391.44;;;-11.41;51.40
68141;BME280;54941;52.220;104.306;2024-01-06T06:57:28;96379.69;;;-11.39;51.48
68141;BME280;54941;52.220;104.306;2024-01-06T06:59:54;96389.56;;;-11.30;51.74
68141;BME280;54941;52.220;104.306;2024-01-06T07:02:21;96385.13;;;-11.20;50.49
68141;BME280;54941;52.220;104.306;2024-01-06T07:04:47;96402.00;;;-11.22;50.44
68141;BME280;54941;52.220;104.306;2024-01-06T07:07:13;96413.41;;;-11.30;50.43
68141;BME280;54941;52.220;104.306;2024-01-06T07:09:40;96398.44;;;-11.24;50.85
68141;BME280;54941;52.220;104.306;2024-01-06T07:12:07;96389.00;;;-11.11;50.38
68141;BME280;54941;52.220;104.306;2024-01-06T07:14:35;96391.97;;;-11.19;49.75
68141;BME280;54941;52.220;104.306;2024-01-06T07:17:01;96389.94;;;-11.24;49.63
68141;BME280;54941;52.220;104.306;2024-01-06T07:19:27;96381.91;;;-11.30;50.00
68141;BME280;54941;52.220;104.306;2024-01-06T07:21:54;96381.41;;;-11.25;49.74
68141;BME280;54941;52.220;104.306;2024-01-06T07:24:20;96393.19;;;-11.27;50.15
68141;BME280;54941;52.220;104.306;2024-01-06T07:26:46;96373.06;;;-11.22;49.92
68141;BME280;54941;52.220;104.306;2024-01-06T07:29:12;96380.84;;;-11.06;50.52
68141;BME280;54941;52.220;104.306;2024-01-06T07:31:40;96391.16;;;-11.04;49.89
68141;BME280;54941;52.220;104.306;2024-01-06T07:34:07;96389.00;;;-11.11;50.31
68141;BME280;54941;52.220;104.306;2024-01-06T07:36:33;96387.16;;;-11.14;50.32
68141;BME280;54941;52.220;104.306;2024-01-06T07:39:02;96383.50;;;-11.04;50.53
68141;BME280;54941;52.220;104.306;2024-01-06T07:41:29;96381.13;;;-11.01;50.63
68141;BME280;54941;52.220;104.306;2024-01-06T07:43:55;96393.22;;;-11.12;50.67
68141;BME280;54941;52.220;104.306;2024-01-06T07:46:21;96380.03;;;-11.20;50.90
68141;BME280;54941;52.220;104.306;2024-01-06T07:48:49;96373.16;;;-11.21;51.25
68141;BME280;54941;52.220;104.306;2024-01-06T07:51:15;96382.28;;;-11.24;51.33
68141;BME280;54941;52.220;104.306;2024-01-06T07:53:41;96381.97;;;-11.15;51.04
68141;BME280;54941;52.220;104.306;2024-01-06T07:56:08;96385.13;;;-11.20;51.25
68141;BME280;54941;52.220;104.306;2024-01-06T07:58:34;96386.56;;;-11.10;51.09
68141;BME280;54941;52.220;104.306;2024-01-06T08:01:00;96379.97;;;-11.06;51.37
68141;BME280;54941;52.220;104.306;2024-01-06T08:03:27;96385.69;;;-11.10;51.62
68141;BME280;54941;52.220;104.306;2024-01-06T08:05:54;96384.09;;;-11.08;50.72
68141;BME280;54941;52.220;104.306;2024-01-06T08:08:21;96384.16;;;-11.22;50.81
68141;BME280;54941;52.220;104.306;2024-01-06T08:10:47;96385.69;;;-11.24;51.02
68141;BME280;54941;52.220;104.306;2024-01-06T08:13:13;96391.22;;;-11.31;51.07
68141;BME280;54941;52.220;104.306;2024-01-06T08:15:39;96386.94;;;-11.32;51.40
68141;BME280;54941;52.220;104.306;2024-01-06T08:18:06;96375.25;;;-11.28;51.13
68141;BME280;54941;52.220;104.306;2024-01-06T08:20:32;96378.53;;;-11.44;50.83
68141;BME280;54941;52.220;104.306;2024-01-06T08:23:00;96381.09;;;-11.44;50.98
68141;BME280;54941;52.220;104.306;2024-01-06T08:25:26;96384.50;;;-11.43;50.64
68141;BME280;54941;52.220;104.306;2024-01-06T08:27:52;96383.53;;;-11.59;50.99
68141;BME280;54941;52.220;104.306;2024-01-06T08:30:19;96377.25;;;-11.51;49.98
68141;BME280;54941;52.220;104.306;2024-01-06T08:32:45;96384.06;;;-11.64;50.99
68141;BME280;54941;52.220;104.306;2024-01-06T08:35:12;96384.75;;;-11.67;50.60
68141;BME280;54941;52.220;104.306;2024-01-06T08:37:38;96383.28;;;-11.77;50.40
68141;BME280;54941;52.220;104.306;2024-01-06T08:40:07;96387.34;;;-11.80;50.59
68141;BME280;54941;52.220;104.306;2024-01-06T08:42:34;96389.13;;;-11.79;50.30
68141;BME280;54941;52.220;104.306;2024-01-06T08:45:00;96377.41;;;-11.75;50.09
68141;BME280;54941;52.220;104.306;2024-01-06T08:47:26;96392.91;;;-11.86;50.34
68141;BME280;54941;52.220;104.306;2024-01-06T08:49:53;96383.13;;;-11.80;50.91
68141;BME280;54941;52.220;104.306;2024-01-06T08:52:19;96386.94;;;-11.86;50.43
68141;BME280;54941;52.220;104.306;2024-01-06T08:54:45;96388.44;;;-11.90;50.82
68141;BME280;54941;52.220;104.306;2024-01-06T08:57:13;96387.47;;;-11.92;50.56
68141;BME280;54941;52.220;104.306;2024-01-06T08:59:39;96392.94;;;-11.99;50.57
68141;BME280;54941;52.220;104.306;2024-01-06T09:02:05;96389.22;;;-11.91;50.64
68141;BME280;54941;52.220;104.306;2024-01-06T09:04:32;96398.91;;;-11.98;50.50
68141;BME280;54941;52.220;104.306;2024-01-06T09:06:58;96405.94;;;-12.08;50.87
68141;BME280;54941;52.220;104.306;2024-01-06T09:09:24;96401.25;;;-12.15;50.99
68141;BME280;54941;52.220;104.306;2024-01-06T09:11:51;96410.34;;;-12.05;50.21
68141;BME280;54941;52.220;104.306;2024-01-06T09:14:18;96421.13;;;-12.09;50.78
68141;BME280;54941;52.220;104.306;2024-01-06T09:16:45;96413.78;;;-12.18;51.05
68141;BME280;54941;52.220;104.306;2024-01-06T09:19:11;96414.09;;;-12.13;50.75
68141;BME280;54941;52.220;104.306;2024-01-06T09:21:37;96419.75;;;-12.17;50.80
68141;BME280;54941;52.220;104.306;2024-01-06T09:24:04;96414.38;;;-12.22;51.20
68141;BME280;54941;52.220;104.306;2024-01-06T09:26:30;96420.75;;;-12.15;50.86
68141;BME280;54941;52.220;104.306;2024-01-06T09:28:56;96409.47;;;-12.19;50.89
68141;BME280;54941;52.220;104.306;2024-01-06T09:31:24;96423.47;;;-12.25;50.91
68141;BME280;54941;52.220;104.306;2024-01-06T09:33:50;96423.66;;;-12.22;51.28
68141;BME280;54941;52.220;104.306;2024-01-06T09:36:17;96417.78;;;-12.34;51.44
68141;BME280;54941;52.220;104.306;2024-01-06T09:38:43;96414.03;;;-12.40;51.67
68141;BME280;54941;52.220;104.306;2024-01-06T09:41:09;96418.84;;;-12.31;51.40
68141;BME280;54941;52.220;104.306;2024-01-06T09:43:37;96419.53;;;-12.47;51.67
68141;BME280;54941;52.220;104.306;2024-01-06T09:46:06;96425.88;;;-12.40;51.49
68141;BME280;54941;52.220;104.306;2024-01-06T09:48:40;96425.94;;;-12.52;52.01
68141;BME280;54941;52.220;104.306;2024-01-06T09:51:10;96429.59;;;-12.48;52.15
68141;BME280;54941;52.220;104.306;2024-01-06T09:53:48;96435.06;;;-12.55;52.17
68141;BME280;54941;52.220;104.306;2024-01-06T09:56:17;96428.50;;;-12.52;51.86
68141;BME280;54941;52.220;104.306;2024-01-06T09:58:44;96425.94;;;-12.52;52.00
68141;BME280;54941;52.220;104.306;2024-01-06T10:01:10;96428.50;;;-12.52;52.07
68141;BME280;54941;52.220;104.306;2024-01-06T10:03:38;96427.34;;;-12.44;51.96
68141;BME280;54941;52.220;104.306;2024-01-06T10:06:05;96432.59;;;-12.54;52.43
68141;BME280;54941;52.220;104.306;2024-01-06T10:08:34;96435.63;;;-12.59;52.62
68141;BME280;54941;52.220;104.306;2024-01-06T10:11:01;96448.47;;;-12.58;52.53
68141;BME280;54941;52.220;104.306;2024-01-06T10:13:28;96455.66;;;-12.64;52.93
68141;BME280;54941;52.220;104.306;2024-01-06T10:15:54;96437.97;;;-12.62;52.94
68141;BME280;54941;52.220;104.306;2024-01-06T10:18:21;96446.22;;;-12.53;52.51
68141;BME280;54941;52.220;104.306;2024-01-06T10:20:50;96425.94;;;-12.52;52.53
68141;BME280;54941;52.220;104.306;2024-01-06T10:23:16;96428.41;;;-12.53;52.65
68141;BME280;54941;52.220;104.306;2024-01-06T10:25:43;96430.22;;;-12.64;53.32
68141;BME280;54941;52.220;104.306;2024-01-06T10:28:11;96424.00;;;-12.56;53.27
68141;BME280;54941;52.220;104.306;2024-01-06T10:30:38;96427.59;;;-12.66;53.58
68141;BME280;54941;52.220;104.306;2024-01-06T10:33:08;96432.78;;;-12.64;53.09
68141;BME280;54941;52.220;104.306;2024-01-06T10:35:35;96429.16;;;-12.68;53.53
68141;BME280;54941;52.220;104.306;2024-01-06T10:38:03;96440.41;;;-12.64;53.54
68141;BME280;54941;52.220;104.306;2024-01-06T10:40:29;96437.47;;;-12.70;53.47
68141;BME280;54941;52.220;104.306;2024-01-06T10:42:56;96428.53;;;-12.77;53.76
68141;BME280;54941;52.220;104.306;2024-01-06T10:45:22;96447.47;;;-12.85;53.80
68141;BME280;54941;52.220;104.306;2024-01-06T10:47:49;96445.25;;;-12.80;54.04
68141;BME280;54941;52.220;104.306;2024-01-06T10:50:17;96457.09;;;-12.81;53.89
68141;BME280;54941;52.220;104.306;2024-01-06T10:52:44;96460.66;;;-12.90;53.65
68141;BME280;54941;52.220;104.306;2024-01-06T10:55:15;96461.19;;;-12.83;53.79
68141;BME280;54941;52.220;104.306;2024-01-06T10:57:43;96461.19;;;-12.83;53.85
68141;BME280;54941;52.220;104.306;2024-01-06T11:00:10;96457.34;;;-12.89;54.06
68141;BME280;54941;52.220;104.306;2024-01-06T11:02:37;96448.19;;;-12.74;53.75
68141;BME280;54941;52.220;104.306;2024-01-06T11:05:04;96460.50;;;-12.80;53.81
68141;BME280;54941;52.220;104.306;2024-01-06T11:07:31;96460.75;;;-12.89;53.99
68141;BME280;54941;52.220;104.306;2024-01-06T11:09:59;96473.94;;;-12.94;54.39
68141;BME280;54941;52.220;104.306;2024-01-06T11:12:34;96479.97;;;-13.06;54.07
68141;BME280;54941;52.220;104.306;2024-01-06T11:15:00;96467.75;;;-12.98;54.58
68141;BME280;54941;52.220;104.306;2024-01-06T11:17:52;96465.75;;;-12.90;54.50
68141;BME280;54941;52.220;104.306;2024-01-06T11:20:18;96466.09;;;-12.98;54.81
68141;BME280;54941;52.220;104.306;2024-01-06T11:22:45;96466.22;;;-12.96;54.51
68141;BME280;54941;52.220;104.306;2024-01-06T11:25:14;96465.31;;;-12.97;54.61
68141;BME280;54941;52.220;104.306;2024-01-06T11:27:43;96453.81;;;-12.91;54.53
68141;BME280;54941;52.220;104.306;2024-01-06T11:30:19;96464.81;;;-12.79;54.70
68141;BME280;54941;52.220;104.306;2024-01-06T11:32:45;96455.78;;;-12.87;54.60
68141;BME280;54941;52.220;104.306;2024-01-06T11:35:13;96455.88;;;-12.86;54.37
68141;BME280;54941;52.220;104.306;2024-01-06T11:37:52;96451.53;;;-13.00;54.90
68141;BME280;54941;52.220;104.306;2024-01-06T11:40:23;96447.41;;;-12.98;54.83
68141;BME280;54941;52.220;104.306;2024-01-06T11:42:59;96447.91;;;-13.04;54.92
68141;BME280;54941;52.220;104.306;2024-01-06T11:45:26;96455.81;;;-12.99;55.01
68141;BME280;54941;52.220;104.306;2024-01-06T11:48:05;96454.84;;;-13.01;55.44
68141;BME280;54941;52.220;104.306;2024-01-06T11:50:37;96450.50;;;-12.90;54.79
68141;BME280;54941;52.220;104.306;2024-01-06T11:53:04;96439.00;;;-12.97;54.88
68141;BME280;54941;52.220;104.306;2024-01-06T11:55:32;96439.72;;;-13.11;55.24
68141;BME280;54941;52.220;104.306;2024-01-06T11:58:01;96444.91;;;-13.10;55.39
68141;BME280;54941;52.220;104.306;2024-01-06T12:00:27;96435.59;;;-13.22;55.69
68141;BME280;54941;52.220;104.306;2024-01-06T12:02:56;96446.56;;;-13.35;56.03
68141;BME280;54941;52.220;104.306;2024-01-06T12:05:30;96449.31;;;-13.32;56.20
68141;BME280;54941;52.220;104.306;2024-01-06T12:07:58;96452.13;;;-13.16;55.77
68141;BME280;54941;52.220;104.306;2024-01-06T12:10:26;96454.97;;;-13.11;56.16
68141;BME280;54941;52.220;104.306;2024-01-06T12:12:57;96447.31;;;-13.24;56.02
68141;BME280;54941;52.220;104.306;2024-01-06T12:15:25;96456.34;;;-13.16;55.89
68141;BME280;54941;52.220;104.306;2024-01-06T12:17:51;96455.09;;;-13.10;55.87
68141;BME280;54941;52.220;104.306;2024-01-06T12:20:18;96447.94;;;-13.15;55.52
68141;BME280;54941;52.220;104.306;2024-01-06T12:22:44;96451.72;;;-13.22;55.90
68141;BME280;54941;52.220;104.306;2024-01-06T12:25:11;96437.53;;;-13.07;55.51
68141;BME280;54941;52.220;104.306;2024-01-06T12:27:42;96442.44;;;-12.97;55.75
68141;BME280;54941;52.220;104.306;2024-01-06T12:30:12;96445.41;;;-12.90;55.64